Meteorológiai információk azoknak akik tudják olvasni.

METAR = LHBP 191630Z 30016KT CAVOK 23/14 Q1015 NOSIG

9 órás TAF = TAF TAF LHBP 182000Z 1820/1821 CNL

24 órás TAF = TAF TAF LHBP 191115Z 1912/2012 VRB03KT CAVOK BECMG 1912/1915 32012KT BECMG 1921/1923 SCT040 BKN090 TEMPO 2001/2007 SHRA TSRA FEW015 SCT030CB BKN070 TEMPO 2007/2012 RA SHRA SCT025 BKN050 BECMG 2007/2009 31007KT

ÁLLOMÁS.................... LHBP
ÉSZLELÉS................... Sat Aug 19, 18:30 CEST
MOST....................... Sat Aug 19, 18:57 CEST
IDŐ........................ 27 perccel ezelőtt
SZÉL....................... NYÉNY irányból 16 csomó
LÁTÁSTÁVOLSÁG.............. 10 km vagy több
FELHŐZET................... jelentős felhőzet nincs
HŐMÉRSÉKLET................ 73°F (23°C)
HARMATPONT................. 57°F (14°C)
PÁRATARTALOM............... 57%
LÉGNYOMÁS.................. 1015 hPa (29.97 in Hg)

További információ LHBP állomásról

Meteor információ kérése:        állomásról.    

 

www.tothgeza.hu

 

English version
Copyright © 2003-2017 Tóth Géza Minden jog fenntartva.